Lake George, New York
Current Conditions -  °F | °C
As of 1:53 AM on Thursday 27 Nov 2014 (Local Time) from KGFL Reporting Station
Light Snow Light Snow  
Wind Chill: 22°   Ceiling: 3600
Heat Index: 30°   Visibility: 3mi
Dew Point: 27°   Wind: 8mph
Humidity: 88%   Direction: 350°N
Pressure: 29.91"   Gusts: NA
Location:  43.43°N, 73.72°W
Report Text: KGFL 270653Z AUTO 35007KT 3SM -SN BR FEW009 FEW027 OVC036 M01/M03 A2991 RMK AO2 SLP137 P0000 T10111028
Loading
Personal Weather Stations






























Interactive Weather Map New forecast layout! Learn more

10-Day Weather Forecast

Advertisements
Track Severe Weather on mobile